Time;durP1;ratioP1;P1;durP2;ratioP2;P2;SDS_P1;SDS_P2;PMS_P1;PMS_P2;Temp;Humidity;BMP_temperature;BMP_pressure;BME280_temperature;BME280_humidity;BME280_pressure;Samples;Min_cycle;Max_cycle;Signal;HPM_P1;HPM_P2
2021/12/03 00:00:20;;;;;;;9.55;3.37;;;;;;;0.05;79.85;99603.20;1723653;83;21131;-82
2021/12/03 00:02:50;;;;;;;7.05;2.83;;;;;;;0.02;79.87;99601.75;1723414;83;21513;-82
2021/12/03 00:05:17;;;;;;;7.12;3.30;;;;;;;-0.02;79.84;99601.62;1723680;83;21010;-82
2021/12/03 00:07:44;;;;;;;10.63;2.70;;;;;;;-0.06;79.86;99600.09;1723701;83;21109;-81
2021/12/03 00:10:12;;;;;;;5.85;2.70;;;;;;;-0.05;79.91;99609.64;1702753;83;21089;-81
2021/12/03 00:12:39;;;;;;;5.22;2.95;;;;;;;-0.06;79.95;99613.91;1723742;83;21113;-82
2021/12/03 00:15:07;;;;;;;7.20;3.27;;;;;;;-0.05;79.97;99619.98;1723785;83;21879;-82
2021/12/03 00:17:34;;;;;;;6.45;2.80;;;;;;;-0.05;80.00;99618.70;1723927;83;21126;-82
2021/12/03 00:20:02;;;;;;;7.15;2.80;;;;;;;-0.05;79.97;99619.98;1727704;82;21084;-82
2021/12/03 00:22:28;;;;;;;6.45;3.33;;;;;;;-0.05;79.98;99618.70;1737834;82;21006;-82
2021/12/03 00:24:55;;;;;;;9.08;2.80;;;;;;;-0.06;80.00;99623.38;1738414;81;21064;-82
2021/12/03 00:27:22;;;;;;;6.92;3.10;;;;;;;-0.04;80.02;99630.80;1738520;82;21770;-82
2021/12/03 00:29:49;;;;;;;7.67;3.25;;;;;;;-0.05;79.93;99626.45;1738444;82;21037;-81
2021/12/03 00:32:17;;;;;;;7.15;3.12;;;;;;;-0.06;79.90;99625.96;1738542;81;21057;-82
2021/12/03 00:34:47;;;;;;;7.78;3.70;;;;;;;-0.06;79.93;99632.42;1737045;81;21080;-82
2021/12/03 00:37:17;;;;;;;6.45;3.27;;;;;;;-0.05;79.94;99631.62;1738370;81;21061;-83
2021/12/03 00:39:47;;;;;;;6.08;3.83;;;;;;;-0.08;79.89;99637.52;1738304;81;21779;-82
2021/12/03 00:42:16;;;;;;;8.58;4.12;;;;;;;-0.08;79.91;99643.98;1737563;82;21040;-82
2021/12/03 00:44:45;;;;;;;6.33;3.10;;;;;;;-0.12;79.86;99651.12;1737610;82;21077;-82
2021/12/03 00:47:09;;;;;;;9.63;3.50;;;;;;;-0.15;79.84;99647.48;1736966;82;21706;-82
2021/12/03 00:49:36;;;;;;;5.05;2.90;;;;;;;-0.20;79.88;99645.56;1737924;81;22347;-83
2021/12/03 00:52:03;;;;;;;4.08;2.58;;;;;;;-0.21;79.87;99650.66;1738161;81;21738;-82
2021/12/03 00:54:35;;;;;;;8.13;3.08;;;;;;;-0.25;79.85;99653.91;1737619;81;21029;-82
2021/12/03 00:57:00;;;;;;;6.37;3.00;;;;;;;-0.29;79.85;99661.91;1737680;82;21096;-82
2021/12/03 00:59:27;;;;;;;6.90;3.95;;;;;;;-0.31;79.87;99665.24;1738150;81;21508;-82
2021/12/03 01:01:54;;;;;;;6.83;2.98;;;;;;;-0.35;79.87;99671.95;1738340;82;21048;-82
2021/12/03 01:04:21;;;;;;;5.92;2.62;;;;;;;-0.35;79.89;99682.70;1738135;82;21849;-83
2021/12/03 01:06:48;;;;;;;8.75;2.85;;;;;;;-0.38;79.86;99683.83;1738011;82;21053;-83
2021/12/03 01:09:15;;;;;;;6.35;2.55;;;;;;;-0.40;79.84;99694.97;1737835;82;21080;-82
2021/12/03 01:11:42;;;;;;;7.00;2.27;;;;;;;-0.44;79.78;99696.91;1737798;82;21157;-82
2021/12/03 01:14:09;;;;;;;8.93;3.37;;;;;;;-0.47;79.80;99694.58;1737988;82;21111;-82
2021/12/03 01:16:35;;;;;;;5.87;2.62;;;;;;;-0.50;79.81;99696.61;1738164;82;21753;-82
2021/12/03 01:19:03;;;;;;;8.75;3.08;;;;;;;-0.52;79.73;99700.81;1737799;81;21044;-82
2021/12/03 01:21:30;;;;;;;8.13;4.05;;;;;;;-0.55;79.74;99701.05;1737952;81;21033;-82
2021/12/03 01:24:02;;;;;;;4.67;2.50;;;;;;;-0.60;79.77;99699.13;1737112;82;21106;-82
2021/12/03 01:26:29;;;;;;;4.90;2.58;;;;;;;-0.63;79.70;99701.95;1712653;82;21668;-82
2021/12/03 01:28:56;;;;;;;6.65;3.12;;;;;;;-0.70;79.67;99699.43;1738081;81;21781;-82
2021/12/03 01:31:25;;;;;;;5.47;2.92;;;;;;;-0.71;79.72;99702.84;1736842;81;21076;-82
2021/12/03 01:33:55;;;;;;;4.12;2.50;;;;;;;-0.74;79.69;99703.95;1737950;82;21093;-82
2021/12/03 01:36:20;;;;;;;5.92;2.67;;;;;;;-0.79;79.58;99709.28;1737350;82;21783;-82
2021/12/03 01:38:48;;;;;;;10.68;3.42;;;;;;;-0.85;79.54;99713.72;1711904;82;21096;-82
2021/12/03 01:41:15;;;;;;;5.67;2.30;;;;;;;-0.92;79.58;99701.68;1738216;82;22583;-82
2021/12/03 01:43:43;;;;;;;5.28;2.30;;;;;;;-0.90;79.57;99720.73;1737839;82;21036;-82
2021/12/03 01:46:11;;;;;;;3.90;2.10;;;;;;;-0.92;79.59;99717.17;1738325;82;21128;-82
2021/12/03 01:48:38;;;;;;;6.37;2.22;;;;;;;-0.95;79.57;99719.62;1738677;82;21177;-82
2021/12/03 01:51:05;;;;;;;5.67;2.77;;;;;;;-0.96;79.63;99724.28;1738152;82;22355;-82
2021/12/03 01:53:36;;;;;;;7.85;2.15;;;;;;;-0.97;79.57;99731.16;1738069;82;22091;-82
2021/12/03 01:56:12;;;;;;;8.23;2.58;;;;;;;-1.08;79.54;99725.39;1738134;82;21120;-82
2021/12/03 01:58:39;;;;;;;4.60;2.27;;;;;;;-1.02;79.58;99732.17;1738143;81;21556;-83
2021/12/03 02:01:12;;;;;;;3.60;1.98;;;;;;;-1.06;79.54;99736.70;1737945;82;21682;-82
2021/12/03 02:03:40;;;;;;;4.80;2.20;;;;;;;-1.10;79.49;99741.21;1738400;82;21578;-82
2021/12/03 02:06:10;;;;;;;5.17;2.22;;;;;;;-1.13;79.52;99741.44;1738476;82;21753;-82
2021/12/03 02:08:37;;;;;;;4.33;1.92;;;;;;;-1.16;79.49;99751.21;1737935;82;21060;-82
2021/12/03 02:11:07;;;;;;;4.40;1.95;;;;;;;-1.19;79.47;99744.16;1711545;82;21084;-82
2021/12/03 02:13:34;;;;;;;4.80;2.20;;;;;;;-1.23;79.42;99740.05;1738064;82;21144;-81
2021/12/03 02:16:01;;;;;;;4.28;1.90;;;;;;;-1.27;79.44;99744.56;1737922;81;21077;-82
2021/12/03 02:18:27;;;;;;;7.58;3.00;;;;;;;-1.31;79.41;99744.79;1738113;82;22593;-82
2021/12/03 02:21:00;;;;;;;7.25;2.10;;;;;;;-1.35;79.42;99749.30;1737752;81;21147;-83
2021/12/03 02:23:27;;;;;;;5.97;2.62;;;;;;;-1.39;79.43;99754.69;1737811;81;21637;-82
2021/12/03 02:25:53;;;;;;;4.35;2.20;;;;;;;-1.43;79.38;99755.30;1737263;81;21313;-82
2021/12/03 02:28:27;;;;;;;6.47;2.40;;;;;;;-1.47;79.45;99755.92;1737782;82;21359;-83
2021/12/03 02:30:53;;;;;;;5.83;2.60;;;;;;;-1.49;79.49;99753.66;1737630;81;21770;-82
2021/12/03 02:33:19;;;;;;;8.63;3.33;;;;;;;-1.50;79.58;99748.03;1737981;81;21068;-82
2021/12/03 02:35:46;;;;;;;7.17;2.83;;;;;;;-1.53;79.53;99747.84;1737795;81;21064;-82
2021/12/03 02:38:16;;;;;;;8.13;3.50;;;;;;;-1.58;79.46;99754.05;1738101;82;21665;-82
2021/12/03 02:40:43;;;;;;;6.28;3.30;;;;;;;-1.62;79.54;99753.36;1737821;82;21084;-82
2021/12/03 02:43:10;;;;;;;7.60;3.60;;;;;;;-1.63;79.62;99755.47;1738071;81;22417;-81
2021/12/03 02:45:36;;;;;;;6.50;3.08;;;;;;;-1.66;79.62;99756.98;1737885;82;21072;-83
2021/12/03 02:48:06;;;;;;;6.87;3.00;;;;;;;-1.67;79.67;99765.13;1737860;82;21084;-82
2021/12/03 02:50:33;;;;;;;6.90;3.65;;;;;;;-1.69;79.65;99759.38;1737706;81;21049;-82
2021/12/03 02:53:00;;;;;;;5.70;2.98;;;;;;;-1.69;79.65;99765.82;1737765;81;21068;-82
2021/12/03 02:55:26;;;;;;;5.55;2.83;;;;;;;-1.72;79.69;99768.25;1737816;82;21791;-82
2021/12/03 02:57:53;;;;;;;6.03;3.22;;;;;;;-1.77;79.65;99771.42;1737732;82;21189;-82
2021/12/03 03:00:23;;;;;;;6.62;3.55;;;;;;;-1.79;79.72;99775.61;1698275;82;21453;-81
2021/12/03 03:02:50;;;;;;;6.33;3.47;;;;;;;-1.78;79.82;99774.82;1737855;82;21044;-83
2021/12/03 03:05:19;;;;;;;8.40;4.72;;;;;;;-1.77;79.86;99783.03;1737871;81;21072;-84
2021/12/03 03:07:48;;;;;;;8.88;5.00;;;;;;;-1.77;79.85;99779.16;1738151;81;21781;-81
2021/12/03 03:10:18;;;;;;;12.05;7.28;;;;;;;-1.76;79.86;99775.80;1737789;82;21132;-81
2021/12/03 03:12:45;;;;;;;11.20;6.20;;;;;;;-1.78;79.90;99773.53;1738014;82;21049;-81
2021/12/03 03:15:12;;;;;;;14.73;8.33;;;;;;;-1.81;79.91;99769.47;1737895;81;21058;-84
2021/12/03 03:17:41;;;;;;;9.35;5.05;;;;;;;-1.79;79.96;99772.15;1711993;82;21089;-82
2021/12/03 03:20:10;;;;;;;17.12;10.03;;;;;;;-1.79;80.09;99770.86;1712083;82;21407;-81
2021/12/03 03:22:37;;;;;;;8.43;4.15;;;;;;;-1.79;80.12;99765.29;1724279;82;21073;-83
2021/12/03 03:25:06;;;;;;;7.15;4.03;;;;;;;-1.77;80.12;99762.39;1723679;83;21080;-82
2021/12/03 03:27:33;;;;;;;8.03;4.35;;;;;;;-1.77;80.11;99764.09;1723513;83;21089;-81
2021/12/03 03:30:00;;;;;;;7.35;4.35;;;;;;;-1.77;80.09;99760.22;1723652;83;21061;-81
2021/12/03 03:32:28;;;;;;;6.22;3.58;;;;;;;-1.77;80.19;99762.39;1723502;83;22430;-81
2021/12/03 03:34:54;;;;;;;8.75;3.17;;;;;;;-1.76;80.21;99760.32;1723634;83;21587;-82
2021/12/03 03:37:21;;;;;;;6.87;3.60;;;;;;;-1.73;80.26;99769.91;1723689;83;21108;-82
2021/12/03 03:39:47;;;;;;;8.88;3.30;;;;;;;-1.72;80.26;99761.80;1723435;83;21163;-82
2021/12/03 03:42:14;;;;;;;5.20;2.50;;;;;;;-1.70;80.29;99764.94;1723692;83;21085;-83
2021/12/03 03:44:41;;;;;;;7.05;3.30;;;;;;;-1.69;80.22;99765.45;1724024;83;21745;-83
2021/12/03 03:47:08;;;;;;;6.42;2.52;;;;;;;-1.71;80.26;99760.57;1723417;83;21050;-83
2021/12/03 03:49:37;;;;;;;4.70;2.92;;;;;;;-1.71;80.26;99764.44;1723851;83;21603;-82
2021/12/03 03:52:04;;;;;;;4.45;2.27;;;;;;;-1.71;80.27;99762.27;1723878;83;21057;-83
2021/12/03 03:54:33;;;;;;;4.97;2.20;;;;;;;-1.71;80.30;99764.44;1723700;83;21045;-82
2021/12/03 03:57:00;;;;;;;6.70;2.80;;;;;;;-1.73;80.29;99760.00;1723758;83;21786;-82
2021/12/03 03:59:30;;;;;;;6.45;2.92;;;;;;;-1.72;80.34;99766.55;1723835;83;21065;-82
2021/12/03 04:01:57;;;;;;;5.20;2.85;;;;;;;-1.72;80.33;99760.09;1724113;83;21076;-82
2021/12/03 04:04:25;;;;;;;6.30;2.70;;;;;;;-1.71;80.39;99757.11;1724052;83;21075;-82
2021/12/03 04:06:53;;;;;;;6.03;2.70;;;;;;;-1.72;80.36;99760.09;1724057;83;22256;-82
2021/12/03 04:09:20;;;;;;;5.15;2.67;;;;;;;-1.72;80.38;99756.23;1723964;83;22572;-82
2021/12/03 04:11:48;;;;;;;6.78;2.98;;;;;;;-1.70;80.42;99756.33;1723590;83;21073;-82
2021/12/03 04:14:15;;;;;;;7.20;2.72;;;;;;;-1.70;80.43;99755.91;1724093;83;21070;-82
2021/12/03 04:16:42;;;;;;;7.12;3.10;;;;;;;-1.69;80.50;99744.80;1723625;83;21225;-82
2021/12/03 04:19:09;;;;;;;7.00;2.85;;;;;;;-1.66;80.56;99751.82;1723872;83;21072;-81
2021/12/03 04:21:35;;;;;;;8.63;3.27;;;;;;;-1.60;80.77;99750.88;1723396;81;21974;-82
2021/12/03 04:24:03;;;;;;;4.17;2.75;;;;;;;-1.51;80.89;99753.09;1723693;83;21065;-82
2021/12/03 04:26:36;;;;;;;7.80;3.15;;;;;;;-1.39;81.07;99756.36;1723457;83;21069;-81
2021/12/03 04:29:01;;;;;;;8.40;4.00;;;;;;;-1.27;81.18;99748.02;1723152;83;21559;-80
2021/12/03 04:31:29;;;;;;;6.53;3.33;;;;;;;-1.13;81.28;99743.61;1723630;83;21061;-82
2021/12/03 04:33:55;;;;;;;6.87;3.58;;;;;;;-1.01;81.26;99733.97;1723779;83;21878;-82
2021/12/03 04:36:26;;;;;;;6.95;3.75;;;;;;;-0.92;81.13;99732.68;1723502;83;21069;-80
2021/12/03 04:38:51;;;;;;;5.67;3.60;;;;;;;-0.87;81.05;99729.95;1722909;83;21002;-82
2021/12/03 04:41:19;;;;;;;12.10;5.03;;;;;;;-0.82;80.94;99725.92;1723372;83;21101;-82
2021/12/03 04:43:46;;;;;;;7.35;3.60;;;;;;;-0.80;80.83;99723.90;1723660;83;21534;-81
2021/12/03 04:46:15;;;;;;;8.33;3.75;;;;;;;-0.76;80.84;99731.41;1721286;83;22988;-81
2021/12/03 04:48:43;;;;;;;7.67;3.72;;;;;;;-0.73;80.81;99730.30;1718007;83;21082;-81
2021/12/03 04:51:11;;;;;;;10.63;4.47;;;;;;;-0.70;80.73;99723.10;1702914;83;21540;-81
2021/12/03 04:53:40;;;;;;;6.22;3.40;;;;;;;-0.67;80.72;99727.16;1702843;83;21751;-82
2021/12/03 04:56:07;;;;;;;6.92;3.92;;;;;;;-0.68;80.67;99724.95;1757109;81;21073;-81
2021/12/03 04:58:40;;;;;;;8.55;3.95;;;;;;;-0.65;80.68;99727.70;1756865;81;21803;-82
2021/12/03 05:01:05;;;;;;;12.07;5.22;;;;;;;-0.62;80.70;99728.27;1755945;80;21324;-82
2021/12/03 05:03:32;;;;;;;14.10;7.22;;;;;;;-0.57;80.73;99733.28;1756616;81;21100;-82
2021/12/03 05:06:02;;;;;;;11.40;4.80;;;;;;;-0.50;80.83;99744.43;1753680;81;21143;-84
2021/12/03 05:08:30;;;;;;;8.45;4.70;;;;;;;-0.41;80.90;99741.45;1725919;83;21623;-82
2021/12/03 05:11:00;;;;;;;9.40;4.12;;;;;;;-0.32;80.95;99738.06;1725880;83;23143;-79
2021/12/03 05:13:33;;;;;;;9.05;4.28;;;;;;;-0.22;80.93;99732.95;1725251;82;21065;-79
2021/12/03 05:16:03;;;;;;;12.53;4.05;;;;;;;-0.13;80.99;99724.38;1702721;83;21065;-79
2021/12/03 05:18:31;;;;;;;11.78;4.62;;;;;;;-0.02;81.00;99729.69;1725798;83;21101;-81
2021/12/03 05:21:02;;;;;;;12.30;4.08;;;;;;;0.07;81.01;99737.41;1733059;82;21364;-78
2021/12/03 05:23:31;;;;;;;10.88;4.12;;;;;;;0.13;81.00;99737.33;1763678;81;23359;-78
2021/12/03 05:26:00;;;;;;;14.98;5.95;;;;;;;0.15;80.96;99724.06;1738978;81;21097;-78
2021/12/03 05:28:37;;;;;;;11.00;4.78;;;;;;;0.17;80.95;99727.61;1762447;80;21010;-78
2021/12/03 05:31:04;;;;;;;9.28;5.10;;;;;;;0.21;80.99;99722.19;1763181;81;21046;-81
2021/12/03 05:33:31;;;;;;;11.97;4.28;;;;;;;0.25;81.07;99729.28;1763759;80;21128;-81
2021/12/03 05:36:01;;;;;;;9.45;4.30;;;;;;;0.28;81.09;99730.73;1763261;81;21733;-84
2021/12/03 05:38:31;;;;;;;11.38;4.17;;;;;;;0.33;81.18;99720.59;1762817;81;21003;-82
2021/12/03 05:40:58;;;;;;;15.43;5.03;;;;;;;0.35;81.11;99715.97;1760314;80;21112;-82
2021/12/03 05:43:25;;;;;;;25.92;10.28;;;;;;;0.37;81.04;99713.45;1736615;82;21054;-80
2021/12/03 05:45:54;;;;;;;14.50;8.55;;;;;;;0.39;81.05;99720.89;1736881;82;21061;-80
2021/12/03 05:48:20;;;;;;;12.98;7.12;;;;;;;0.40;81.08;99714.91;1737222;82;21878;-77
2021/12/03 05:50:48;;;;;;;12.98;5.35;;;;;;;0.40;81.01;99712.33;1736634;81;21057;-77
2021/12/03 05:53:19;;;;;;;11.25;5.70;;;;;;;0.43;81.02;99718.92;1735946;82;21085;-77
2021/12/03 05:55:49;;;;;;;11.70;5.35;;;;;;;0.41;81.01;99700.26;1736200;81;21622;-80
2021/12/03 05:58:21;;;;;;;46.05;16.80;;;;;;;0.48;81.01;99716.16;1737071;82;21108;-80
2021/12/03 06:00:48;;;;;;;30.95;17.60;;;;;;;0.52;80.98;99715.91;1737214;82;21816;-80
2021/12/03 06:03:15;;;;;;;18.95;11.40;;;;;;;0.51;80.88;99712.85;1736937;82;21803;-80
2021/12/03 06:05:44;;;;;;;19.85;11.93;;;;;;;0.55;80.87;99720.83;1762427;80;21080;-81
2021/12/03 06:08:11;;;;;;;15.83;9.48;;;;;;;0.58;80.89;99720.08;1784837;79;21072;-80
2021/12/03 06:10:38;;;;;;;14.13;8.75;;;;;;;0.62;80.80;99718.14;1784945;79;21043;-80
2021/12/03 06:13:08;;;;;;;20.32;11.65;;;;;;;0.64;80.72;99715.59;1777524;79;21782;-80
2021/12/03 06:15:34;;;;;;;9.20;6.42;;;;;;;0.66;80.77;99717.47;1767191;80;21099;-80
2021/12/03 06:18:01;;;;;;;9.40;6.15;;;;;;;0.71;80.79;99718.58;1731087;82;21097;-80
2021/12/03 06:20:28;;;;;;;11.00;7.45;;;;;;;0.75;80.71;99714.02;1732382;81;21049;-80
2021/12/03 06:22:55;;;;;;;29.23;16.57;;;;;;;0.78;80.75;99714.56;1733861;81;21065;-80
2021/12/03 06:25:22;;;;;;;17.05;9.95;;;;;;;0.81;80.71;99712.52;1728028;82;22729;-80
2021/12/03 06:27:48;;;;;;;26.75;15.32;;;;;;;0.84;80.71;99710.08;1761820;80;21077;-80
2021/12/03 06:30:18;;;;;;;21.45;13.22;;;;;;;0.88;80.68;99716.78;1785409;79;21109;-80
2021/12/03 06:32:45;;;;;;;19.32;11.75;;;;;;;0.93;80.71;99710.09;1728934;82;21066;-80
2021/12/03 06:35:13;;;;;;;7.45;6.15;;;;;;;0.95;80.72;99708.45;1761270;80;21144;-80
2021/12/03 06:37:40;;;;;;;9.38;6.62;;;;;;;1.01;80.65;99704.39;1729491;82;21764;-80
2021/12/03 06:40:13;;;;;;;11.75;8.08;;;;;;;1.04;80.56;99692.88;1733341;81;21168;-80
2021/12/03 06:42:43;;;;;;;15.30;9.48;;;;;;;1.06;80.40;99701.60;1729380;82;21072;-81
2021/12/03 06:45:13;;;;;;;14.73;8.65;;;;;;;1.04;80.24;99700.23;1731249;82;21318;-80
2021/12/03 06:47:38;;;;;;;11.75;7.20;;;;;;;0.98;79.99;99690.89;1758945;81;21068;-80
2021/12/03 06:50:07;;;;;;;15.90;11.80;;;;;;;0.91;79.89;99688.83;1761529;80;21746;-80
2021/12/03 06:52:39;;;;;;;12.55;10.15;;;;;;;0.84;79.84;99685.47;1699464;82;22388;-80
2021/12/03 06:55:09;;;;;;;8.30;5.65;;;;;;;0.78;79.84;99689.53;1761100;80;21081;-80
2021/12/03 06:57:35;;;;;;;6.45;4.28;;;;;;;0.73;79.79;99692.73;1729547;81;21081;-79
2021/12/03 07:00:05;;;;;;;6.03;4.12;;;;;;;0.65;79.80;99695.38;1734735;81;21072;-80
2021/12/03 07:02:35;;;;;;;6.28;3.12;;;;;;;0.62;79.87;99706.48;1729647;82;22447;-80
2021/12/03 07:05:03;;;;;;;4.55;3.02;;;;;;;0.60;79.91;99709.80;1760918;80;21073;-80
2021/12/03 07:07:29;;;;;;;7.10;3.80;;;;;;;0.57;79.90;99712.72;1729595;82;21065;-80
2021/12/03 07:10:00;;;;;;;4.95;2.92;;;;;;;0.56;79.94;99710.05;1729801;82;21691;-80
2021/12/03 07:12:24;;;;;;;5.20;2.95;;;;;;;0.57;80.01;99720.91;1760466;80;21129;-80
2021/12/03 07:14:53;;;;;;;5.78;3.20;;;;;;;0.58;79.99;99709.72;1760605;80;21078;-80
2021/12/03 07:17:20;;;;;;;6.33;3.70;;;;;;;0.57;79.95;99702.37;1729227;82;21092;-80
2021/12/03 07:19:47;;;;;;;4.50;3.10;;;;;;;0.59;79.92;99708.92;1729533;82;21117;-80
2021/12/03 07:22:14;;;;;;;7.08;2.87;;;;;;;0.56;79.95;99707.08;1753589;81;21088;-80
2021/12/03 07:24:41;;;;;;;6.50;3.08;;;;;;;0.56;79.91;99706.17;1725742;83;21637;-82
2021/12/03 07:27:10;;;;;;;7.45;3.22;;;;;;;0.56;79.92;99699.31;1725600;83;21837;-80
2021/12/03 07:29:37;;;;;;;3.65;2.90;;;;;;;0.57;79.98;99704.95;1725718;82;21618;-80
2021/12/03 07:32:05;;;;;;;4.15;2.83;;;;;;;0.61;80.08;99707.70;1725751;83;21588;-80
2021/12/03 07:34:32;;;;;;;4.20;3.20;;;;;;;0.68;80.35;99704.59;1725921;82;21058;-80
2021/12/03 07:36:59;;;;;;;5.55;3.60;;;;;;;0.80;80.70;99715.94;1725805;83;21521;-80
2021/12/03 07:39:26;;;;;;;6.28;3.45;;;;;;;0.88;80.98;99709.02;1725640;83;21793;-80
2021/12/03 07:41:53;;;;;;;5.37;2.95;;;;;;;0.93;80.97;99707.50;1725800;83;21647;-80
2021/12/03 07:44:19;;;;;;;6.55;4.22;;;;;;;0.96;80.72;99701.59;1725429;83;21073;-80
2021/12/03 07:46:46;;;;;;;6.35;4.15;;;;;;;0.94;80.52;99714.89;1725869;83;21460;-80
2021/12/03 07:49:13;;;;;;;7.95;4.28;;;;;;;1.00;80.61;99716.88;1702953;83;21519;-81
2021/12/03 07:51:41;;;;;;;10.60;5.80;;;;;;;1.08;80.62;99718.11;1702343;83;21069;-80
2021/12/03 07:54:08;;;;;;;8.98;5.55;;;;;;;1.16;80.46;99717.66;1725488;83;21050;-80
2021/12/03 07:56:36;;;;;;;9.20;4.75;;;;;;;1.21;80.24;99714.38;1724960;83;21085;-80
2021/12/03 07:59:04;;;;;;;8.00;4.33;;;;;;;1.20;79.99;99717.77;1725859;83;21565;-80
2021/12/03 08:01:32;;;;;;;5.67;3.92;;;;;;;1.20;79.86;99715.19;1725877;82;21022;-80
2021/12/03 08:03:59;;;;;;;8.73;4.45;;;;;;;1.20;79.78;99719.07;1725807;83;22467;-80
2021/12/03 08:06:26;;;;;;;6.17;4.58;;;;;;;1.24;79.74;99720.98;1726227;83;21328;-80
2021/12/03 08:08:52;;;;;;;7.35;3.90;;;;;;;1.25;79.72;99724.06;1726124;83;22280;-80
2021/12/03 08:11:19;;;;;;;7.70;4.65;;;;;;;1.29;79.70;99726.85;1726015;83;21113;-80
2021/12/03 08:13:45;;;;;;;7.08;4.45;;;;;;;1.32;79.56;99735.20;1726067;83;21088;-80
2021/12/03 08:16:12;;;;;;;7.15;4.12;;;;;;;1.33;79.49;99739.16;1725946;83;22637;-79
2021/12/03 08:18:39;;;;;;;9.10;4.35;;;;;;;1.37;79.47;99738.89;1725791;83;21328;-80
2021/12/03 08:21:05;;;;;;;8.20;5.12;;;;;;;1.46;79.57;99754.84;1725840;83;21128;-80
2021/12/03 08:23:32;;;;;;;9.03;5.17;;;;;;;1.59;79.64;99750.22;1747809;80;21562;-80
2021/12/03 08:25:59;;;;;;;8.53;4.30;;;;;;;1.68;79.57;99747.63;1759635;80;21068;-80
2021/12/03 08:28:26;;;;;;;6.40;4.85;;;;;;;1.77;79.41;99754.94;1759268;80;21852;-82
2021/12/03 08:30:52;;;;;;;8.90;4.65;;;;;;;1.84;79.25;99754.77;1759691;80;21573;-79
2021/12/03 08:33:19;;;;;;;7.20;4.75;;;;;;;1.85;79.05;99745.77;1759291;80;21064;-80
2021/12/03 08:35:46;;;;;;;9.28;4.12;;;;;;;1.88;78.89;99756.29;1761342;81;21152;-80
2021/12/03 08:38:12;;;;;;;7.00;4.17;;;;;;;1.89;78.79;99752.86;1729467;82;21097;-80
2021/12/03 08:40:39;;;;;;;6.05;3.35;;;;;;;1.95;78.80;99757.42;1729445;82;21751;-80
2021/12/03 08:43:08;;;;;;;3.58;2.95;;;;;;;2.01;78.78;99753.82;1761282;80;21078;-80
2021/12/03 08:45:36;;;;;;;7.92;4.70;;;;;;;2.07;78.71;99762.28;1729549;82;21062;-80
2021/12/03 08:48:04;;;;;;;7.45;4.80;;;;;;;2.14;78.66;99763.02;1761449;81;21105;-80
2021/12/03 08:50:37;;;;;;;5.80;4.10;;;;;;;2.20;78.57;99759.80;1729504;82;21081;-80
2021/12/03 08:55:49;;;;;;;7.03;4.97;;;;;;;2.34;78.51;99766.44;1729598;82;21125;-80
2021/12/03 08:58:17;;;;;;;9.30;5.85;;;;;;;2.42;78.42;99766.77;1761470;80;21069;-80
2021/12/03 09:00:43;;;;;;;9.85;5.03;;;;;;;2.45;78.22;99775.98;1729562;82;21097;-80
2021/12/03 09:03:10;;;;;;;9.53;5.87;;;;;;;2.50;78.19;99770.58;1761475;80;21050;-79
2021/12/03 09:05:38;;;;;;;5.83;3.95;;;;;;;2.56;78.07;99775.15;1729316;82;22553;-79
2021/12/03 09:08:04;;;;;;;12.25;6.30;;;;;;;2.63;77.99;99779.77;1729199;82;21088;-79
2021/12/03 09:10:31;;;;;;;15.65;7.30;;;;;;;2.67;77.99;99779.95;1761288;81;22440;-80
2021/12/03 09:12:58;;;;;;;14.33;7.55;;;;;;;2.78;77.92;99777.80;1729324;82;21254;-80
2021/12/03 09:15:28;;;;;;;6.17;3.55;;;;;;;2.80;77.69;99778.74;1761323;81;21061;-79
2021/12/03 09:23:14;;;;;;;3.85;3.17;;;;;;;2.80;77.28;99777.86;1752914;80;21737;-80
2021/12/03 09:25:42;;;;;;;4.00;2.70;;;;;;;2.77;77.16;99779.03;1740609;81;21563;-79
2021/12/03 09:28:07;;;;;;;4.28;2.90;;;;;;;2.70;77.06;99776.19;1740923;81;21097;-80
2021/12/03 09:30:38;;;;;;;4.20;3.10;;;;;;;2.63;76.99;99785.85;1741493;80;21874;-80
2021/12/03 09:33:06;;;;;;;4.72;2.70;;;;;;;2.48;76.90;99765.32;1741391;82;21670;-82
2021/12/03 09:35:35;;;;;;;5.85;2.52;;;;;;;2.46;76.92;99777.75;1742044;82;21251;-80
2021/12/03 09:38:01;;;;;;;3.70;1.98;;;;;;;2.41;76.99;99781.47;1741553;82;21563;-80
2021/12/03 09:40:30;;;;;;;5.75;2.80;;;;;;;2.36;76.99;99778.20;1741974;81;21681;-80
2021/12/03 09:42:56;;;;;;;13.08;7.78;;;;;;;2.32;77.07;99775.88;1741791;80;22463;-79
2021/12/03 09:45:26;;;;;;;15.60;9.45;;;;;;;2.29;77.04;99774.44;1741829;81;21057;-80
2021/12/03 09:47:53;;;;;;;8.75;4.15;;;;;;;2.22;77.05;99772.44;1741471;81;21081;-82
2021/12/03 09:50:19;;;;;;;6.40;3.47;;;;;;;2.17;77.13;99774.81;1723070;82;21084;-80
2021/12/03 09:55:16;;;;;;;21.97;10.20;;;;;;;2.18;77.40;99784.39;1741866;81;21796;-80
2021/12/03 10:00:34;;;;;;;147.22;61.63;;;;;;;2.23;77.46;99786.75;1733414;82;21092;-79
2021/12/03 10:03:16;;;;;;;18.82;11.97;;;;;;;2.26;77.49;99789.91;1732936;82;21101;-80
2021/12/03 10:13:27;;;;;;;9.43;6.12;;;;;;;2.44;77.65;99792.38;1733699;82;21605;-80
2021/12/03 10:16:02;;;;;;;10.72;5.80;;;;;;;2.62;77.80;99797.47;1733483;82;21538;-80
2021/12/03 10:21:38;;;;;;;10.93;6.22;;;;;;;2.84;77.32;99803.14;1733660;82;21801;-80
2021/12/03 10:32:34;;;;;;;11.43;5.60;;;;;;;3.13;77.04;99791.71;1703780;81;21052;-80
2021/12/03 10:35:47;;;;;;;8.45;3.35;;;;;;;3.16;76.91;99799.22;1733930;81;21830;-80
2021/12/03 10:37:45;;;;;;;6.67;3.77;;;;;;;3.19;76.79;99798.45;1710702;82;21067;-80
2021/12/03 10:58:44;;;;;;;3.92;2.62;;;;;;;3.17;76.40;99805.30;1737371;81;21143;-80
2021/12/03 12:48:56;;;;;;;;;;;;;;;4.28;74.19;99898.89;1728308;83;21058;-80
2021/12/03 13:01:06;;;;;;;12.60;8.63;;;;;;;3.67;74.33;99923.05;1725677;83;21555;-80
2021/12/03 13:13:54;;;;;;;36.15;17.15;;;;;;;3.58;75.00;99930.50;1725451;83;21054;-82
2021/12/03 13:30:04;;;;;;;12.85;9.65;;;;;;;3.21;75.07;99963.23;1727807;83;20986;-79
2021/12/03 13:59:52;;;;;;;6.78;3.67;;;;;;;2.33;75.36;99990.62;1727768;82;22755;-80
2021/12/03 14:05:13;;;;;;;28.02;23.32;;;;;;;2.24;75.64;99995.39;1727485;82;21081;-80
2021/12/03 14:55:39;;;;;;;6.12;4.03;;;;;;;1.64;77.97;100045.33;1725806;82;21511;-79
2021/12/03 14:58:21;;;;;;;4.87;3.20;;;;;;;1.75;78.13;100049.34;1725884;82;21195;-80
2021/12/03 15:00:56;;;;;;;5.40;3.00;;;;;;;1.84;78.13;100046.70;1724759;82;21065;-80
2021/12/03 15:03:41;;;;;;;5.37;2.87;;;;;;;1.91;78.15;100054.84;1724424;83;21486;-79
2021/12/03 15:09:07;;;;;;;3.95;2.72;;;;;;;2.06;78.22;100063.78;1726070;82;20281;-79
2021/12/03 15:21:36;;;;;;;5.70;3.45;;;;;;;2.34;78.14;100065.09;1725602;83;21329;-81
2021/12/03 15:29:31;;;;;;;25.70;19.07;;;;;;;2.49;78.08;100068.41;1689679;83;21601;-81
2021/12/03 15:34:34;;;;;;;12.15;10.15;;;;;;;2.57;78.07;100078.27;1725876;82;21124;-82
2021/12/03 15:37:12;;;;;;;35.50;26.85;;;;;;;2.57;77.99;100082.16;1723292;83;21073;-82
2021/12/03 15:58:35;;;;;;;88.22;49.58;;;;;;;2.52;78.27;100094.95;1726307;83;21803;-81
2021/12/03 16:04:08;;;;;;;57.95;38.53;;;;;;;2.58;78.29;100095.65;1700784;83;21081;-82
2021/12/03 16:06:34;;;;;;;122.70;72.37;;;;;;;2.61;78.37;100097.98;1724368;83;21109;-82
2021/12/03 16:09:07;;;;;;;99.52;60.67;;;;;;;2.66;78.37;100088.66;1725689;83;21121;-81
2021/12/03 16:11:39;;;;;;;88.82;55.92;;;;;;;2.69;78.33;100089.23;1722805;82;22654;-85
2021/12/03 16:24:37;;;;;;;32.03;24.63;;;;;;;2.79;78.34;100103.11;1726464;82;21753;-82
2021/12/03 16:26:59;;;;;;;39.23;30.60;;;;;;;2.80;78.33;100104.91;1722388;81;21437;-82
2021/12/03 16:45:55;;;;;;;18.52;13.95;;;;;;;2.58;78.58;100103.44;1725714;83;21029;-81
2021/12/03 16:53:23;;;;;;;23.00;12.05;;;;;;;2.59;78.80;100101.30;1678173;84;21144;-81
2021/12/03 16:55:57;;;;;;;26.60;15.53;;;;;;;2.59;78.89;100100.92;1722972;82;21108;-81
2021/12/03 16:58:15;;;;;;;32.80;20.40;;;;;;;2.61;78.89;100103.56;1720718;82;21271;-81
2021/12/03 17:00:50;;;;;;;34.18;19.10;;;;;;;2.61;78.92;100100.97;1723623;82;21079;-80
2021/12/03 17:03:28;;;;;;;35.48;20.00;;;;;;;2.62;78.94;100105.36;1722169;83;21815;-80
2021/12/03 17:13:53;;;;;;;29.80;18.48;;;;;;;2.61;78.99;100107.46;1723575;83;21398;-81
2021/12/03 17:22:05;;;;;;;35.20;21.42;;;;;;;2.59;78.94;100097.02;1723546;82;21570;-81
2021/12/03 17:44:32;;;;;;;28.23;14.03;;;;;;;2.56;79.20;100100.77;1761482;81;21113;-81
2021/12/03 17:48:01;;;;;;;16.15;10.55;;;;;;;2.58;79.39;100102.14;1760986;80;21058;-81
2021/12/03 17:58:27;;;;;;;14.05;8.30;;;;;;;2.67;79.34;100105.17;1761192;80;21101;-78
2021/12/03 18:01:04;;;;;;;15.40;8.88;;;;;;;2.68;79.30;100105.63;1729383;82;21081;-79
2021/12/03 18:03:32;;;;;;;15.58;9.15;;;;;;;2.67;79.23;100105.17;1760649;80;21104;-79
2021/12/03 18:08:45;;;;;;;19.53;11.57;;;;;;;2.70;79.28;100106.20;1761942;80;21824;-79